sensor_id;sensor_type;location;lat;lon;timestamp;pressure;altitude;pressure_sealevel;temperature;humidity
57050;BME280;42935;50.966;16.992;2023-03-16T00:02:31;101940.16;;;-1.97;100.00
57050;BME280;42935;50.966;16.992;2023-03-16T00:05:55;101955.88;;;-1.84;100.00
57050;BME280;42935;50.966;16.992;2023-03-16T00:09:18;101962.40;;;-1.81;100.00
57050;BME280;42935;50.966;16.992;2023-03-16T00:12:39;101950.88;;;-1.88;100.00
57050;BME280;42935;50.966;16.992;2023-03-16T00:16:09;101968.05;;;-1.77;100.00
57050;BME280;42935;50.966;16.992;2023-03-16T00:19:37;101958.41;;;-1.84;100.00
57050;BME280;42935;50.966;16.992;2023-03-16T00:22:59;101962.26;;;-1.85;100.00
57050;BME280;42935;50.966;16.992;2023-03-16T00:26:26;101978.95;;;-1.84;100.00
57050;BME280;42935;50.966;16.992;2023-03-16T00:29:50;101953.45;;;-1.90;100.00
57050;BME280;42935;50.966;16.992;2023-03-16T00:33:17;101965.31;;;-1.86;100.00
57050;BME280;42935;50.966;16.992;2023-03-16T00:36:34;101984.88;;;-1.78;100.00
57050;BME280;42935;50.966;16.992;2023-03-16T00:39:57;101990.15;;;-1.77;100.00
57050;BME280;42935;50.966;16.992;2023-03-16T00:43:17;101992.37;;;-1.75;100.00
57050;BME280;42935;50.966;16.992;2023-03-16T00:46:45;101954.49;;;-1.99;100.00
57050;BME280;42935;50.966;16.992;2023-03-16T00:50:05;101981.61;;;-1.89;100.00
57050;BME280;42935;50.966;16.992;2023-03-16T00:53:25;101987.30;;;-1.86;100.00
57050;BME280;42935;50.966;16.992;2023-03-16T00:56:45;101994.62;;;-1.84;100.00
57050;BME280;42935;50.966;16.992;2023-03-16T01:00:13;101996.66;;;-1.81;100.00
57050;BME280;42935;50.966;16.992;2023-03-16T01:03:44;101993.41;;;-1.87;100.00
57050;BME280;42935;50.966;16.992;2023-03-16T01:07:05;102004.58;;;-1.78;100.00
57050;BME280;42935;50.966;16.992;2023-03-16T01:10:24;101995.77;;;-1.78;100.00
57050;BME280;42935;50.966;16.992;2023-03-16T01:13:43;101999.70;;;-1.80;100.00
57050;BME280;42935;50.966;16.992;2023-03-16T01:17:02;102003.20;;;-1.81;100.00
57050;BME280;42935;50.966;16.992;2023-03-16T01:20:26;102013.75;;;-1.73;100.00
57050;BME280;42935;50.966;16.992;2023-03-16T01:23:47;102016.48;;;-1.75;100.00
57050;BME280;42935;50.966;16.992;2023-03-16T01:27:08;102013.53;;;-1.83;100.00
57050;BME280;42935;50.966;16.992;2023-03-16T01:30:28;102027.70;;;-1.75;100.00
57050;BME280;42935;50.966;16.992;2023-03-16T01:33:46;102027.65;;;-1.74;100.00
57050;BME280;42935;50.966;16.992;2023-03-16T01:37:01;102029.74;;;-1.66;100.00
57050;BME280;42935;50.966;16.992;2023-03-16T01:40:21;102024.81;;;-1.73;100.00
57050;BME280;42935;50.966;16.992;2023-03-16T01:43:49;102038.90;;;-1.65;100.00
57050;BME280;42935;50.966;16.992;2023-03-16T01:47:12;102041.95;;;-1.67;100.00
57050;BME280;42935;50.966;16.992;2023-03-16T01:50:32;102035.36;;;-1.75;100.00
57050;BME280;42935;50.966;16.992;2023-03-16T01:53:57;102035.27;;;-1.72;100.00
57050;BME280;42935;50.966;16.992;2023-03-16T01:57:27;102023.05;;;-1.80;100.00
57050;BME280;42935;50.966;16.992;2023-03-16T02:00:53;102044.19;;;-1.61;100.00
57050;BME280;42935;50.966;16.992;2023-03-16T02:04:22;102045.58;;;-1.61;100.00
57050;BME280;42935;50.966;16.992;2023-03-16T02:07:46;102043.06;;;-1.61;100.00
57050;BME280;42935;50.966;16.992;2023-03-16T02:11:00;102034.42;;;-1.66;100.00
57050;BME280;42935;50.966;16.992;2023-03-16T02:14:16;102052.98;;;-1.56;100.00
57050;BME280;42935;50.966;16.992;2023-03-16T02:17:32;102055.59;;;-1.59;100.00
57050;BME280;42935;50.966;16.992;2023-03-16T02:21:04;102053.34;;;-1.60;100.00
57050;BME280;42935;50.966;16.992;2023-03-16T02:24:19;102054.84;;;-1.62;100.00
57050;BME280;42935;50.966;16.992;2023-03-16T02:31:06;102053.17;;;-1.57;100.00
57050;BME280;42935;50.966;16.992;2023-03-16T02:34:23;102040.52;;;-1.68;100.00
57050;BME280;42935;50.966;16.992;2023-03-16T02:37:39;102060.85;;;-1.57;100.00
57050;BME280;42935;50.966;16.992;2023-03-16T02:41:00;102064.70;;;-1.58;100.00
57050;BME280;42935;50.966;16.992;2023-03-16T02:44:22;102041.95;;;-1.75;100.00
57050;BME280;42935;50.966;16.992;2023-03-16T02:47:42;102048.26;;;-1.75;100.00
57050;BME280;42935;50.966;16.992;2023-03-16T02:51:00;102056.95;;;-1.71;100.00
57050;BME280;42935;50.966;16.992;2023-03-16T02:54:15;102065.78;;;-1.65;100.00
57050;BME280;42935;50.966;16.992;2023-03-16T02:57:29;102066.32;;;-1.71;100.00
57050;BME280;42935;50.966;16.992;2023-03-16T03:00:53;102060.93;;;-1.76;100.00
57050;BME280;42935;50.966;16.992;2023-03-16T03:04:15;102061.07;;;-1.80;100.00
57050;BME280;42935;50.966;16.992;2023-03-16T03:07:39;102066.27;;;-1.82;100.00
57050;BME280;42935;50.966;16.992;2023-03-16T03:10:57;102076.84;;;-1.80;100.00
57050;BME280;42935;50.966;16.992;2023-03-16T03:14:16;102081.70;;;-1.86;100.00
57050;BME280;42935;50.966;16.992;2023-03-16T03:17:37;102084.70;;;-1.92;100.00
57050;BME280;42935;50.966;16.992;2023-03-16T03:21:00;102078.95;;;-2.02;100.00
57050;BME280;42935;50.966;16.992;2023-03-16T03:24:21;102090.70;;;-2.03;100.00
57050;BME280;42935;50.966;16.992;2023-03-16T03:27:41;102094.12;;;-1.99;100.00
57050;BME280;42935;50.966;16.992;2023-03-16T03:31:04;102087.90;;;-2.12;100.00
57050;BME280;42935;50.966;16.992;2023-03-16T03:34:24;102092.58;;;-2.13;100.00
57050;BME280;42935;50.966;16.992;2023-03-16T03:37:45;102105.27;;;-2.09;100.00
57050;BME280;42935;50.966;16.992;2023-03-16T03:41:05;102101.63;;;-2.16;100.00
57050;BME280;42935;50.966;16.992;2023-03-16T03:44:27;102097.54;;;-2.20;100.00
57050;BME280;42935;50.966;16.992;2023-03-16T03:47:50;102104.68;;;-2.22;100.00
57050;BME280;42935;50.966;16.992;2023-03-16T03:51:13;102103.25;;;-2.20;100.00
57050;BME280;42935;50.966;16.992;2023-03-16T03:54:34;102103.88;;;-2.20;100.00
57050;BME280;42935;50.966;16.992;2023-03-16T03:57:54;102098.63;;;-2.32;100.00
57050;BME280;42935;50.966;16.992;2023-03-16T04:01:16;102104.86;;;-2.37;100.00
57050;BME280;42935;50.966;16.992;2023-03-16T04:04:37;102107.15;;;-2.42;100.00
57050;BME280;42935;50.966;16.992;2023-03-16T04:07:56;102116.20;;;-2.38;100.00
57050;BME280;42935;50.966;16.992;2023-03-16T04:11:17;102122.98;;;-2.44;100.00
57050;BME280;42935;50.966;16.992;2023-03-16T04:14:38;102111.93;;;-2.50;100.00
57050;BME280;42935;50.966;16.992;2023-03-16T04:18:06;102102.96;;;-2.61;100.00
57050;BME280;42935;50.966;16.992;2023-03-16T04:21:23;102121.36;;;-2.49;100.00
57050;BME280;42935;50.966;16.992;2023-03-16T04:24:51;102126.20;;;-2.52;100.00
57050;BME280;42935;50.966;16.992;2023-03-16T04:28:13;102128.63;;;-2.53;100.00
57050;BME280;42935;50.966;16.992;2023-03-16T04:31:35;102130.04;;;-2.54;100.00
57050;BME280;42935;50.966;16.992;2023-03-16T04:34:51;102123.90;;;-2.73;100.00
57050;BME280;42935;50.966;16.992;2023-03-16T04:38:14;102124.59;;;-2.75;100.00
57050;BME280;42935;50.966;16.992;2023-03-16T04:41:38;102141.15;;;-2.63;100.00
57050;BME280;42935;50.966;16.992;2023-03-16T04:44:57;102131.56;;;-2.70;100.00
57050;BME280;42935;50.966;16.992;2023-03-16T04:48:17;102130.73;;;-2.74;100.00
57050;BME280;42935;50.966;16.992;2023-03-16T04:51:37;102154.04;;;-2.66;100.00
57050;BME280;42935;50.966;16.992;2023-03-16T04:55:04;102154.31;;;-2.64;100.00
57050;BME280;42935;50.966;16.992;2023-03-16T04:58:25;102152.73;;;-2.66;100.00
57050;BME280;42935;50.966;16.992;2023-03-16T05:01:45;102152.49;;;-2.59;100.00
57050;BME280;42935;50.966;16.992;2023-03-16T05:05:09;102140.55;;;-2.69;100.00
57050;BME280;42935;50.966;16.992;2023-03-16T05:08:25;102149.87;;;-2.70;100.00
57050;BME280;42935;50.966;16.992;2023-03-16T05:11:45;102135.34;;;-2.89;100.00
57050;BME280;42935;50.966;16.992;2023-03-16T05:15:08;102149.90;;;-2.86;100.00
57050;BME280;42935;50.966;16.992;2023-03-16T05:18:29;102150.43;;;-2.89;100.00
57050;BME280;42935;50.966;16.992;2023-03-16T05:21:51;102165.14;;;-2.73;100.00
57050;BME280;42935;50.966;16.992;2023-03-16T05:25:10;102156.97;;;-2.68;100.00
57050;BME280;42935;50.966;16.992;2023-03-16T05:28:34;102163.29;;;-2.57;100.00
57050;BME280;42935;50.966;16.992;2023-03-16T05:31:54;102154.67;;;-2.61;100.00
57050;BME280;42935;50.966;16.992;2023-03-16T05:35:14;102152.08;;;-2.60;100.00
57050;BME280;42935;50.966;16.992;2023-03-16T05:38:34;102166.77;;;-2.49;100.00
57050;BME280;42935;50.966;16.992;2023-03-16T05:41:57;102166.88;;;-2.45;100.00
57050;BME280;42935;50.966;16.992;2023-03-16T05:45:18;102161.27;;;-2.46;100.00
57050;BME280;42935;50.966;16.992;2023-03-16T05:48:36;102172.10;;;-2.35;100.00
57050;BME280;42935;50.966;16.992;2023-03-16T05:51:57;102176.02;;;-2.30;100.00
57050;BME280;42935;50.966;16.992;2023-03-16T05:53:20;102177.95;;;-2.27;100.00
57050;BME280;42935;50.966;16.992;2023-03-16T05:56:45;102179.49;;;-2.18;100.00
57050;BME280;42935;50.966;16.992;2023-03-16T06:00:07;102175.94;;;-2.20;100.00
57050;BME280;42935;50.966;16.992;2023-03-16T06:03:37;102186.45;;;-2.10;100.00
57050;BME280;42935;50.966;16.992;2023-03-16T06:06:57;102161.84;;;-2.20;100.00
57050;BME280;42935;50.966;16.992;2023-03-16T06:10:17;102167.13;;;-2.14;100.00
57050;BME280;42935;50.966;16.992;2023-03-16T06:13:38;102183.74;;;-1.98;100.00
57050;BME280;42935;50.966;16.992;2023-03-16T06:16:59;102201.72;;;-1.81;100.00
57050;BME280;42935;50.966;16.992;2023-03-16T06:20:19;102208.53;;;-1.72;100.00
57050;BME280;42935;50.966;16.992;2023-03-16T06:23:44;102203.85;;;-1.67;100.00
57050;BME280;42935;50.966;16.992;2023-03-16T06:27:03;102199.42;;;-1.65;100.00
57050;BME280;42935;50.966;16.992;2023-03-16T06:30:22;102203.59;;;-1.56;100.00
57050;BME280;42935;50.966;16.992;2023-03-16T06:33:42;102176.44;;;-1.67;100.00
57050;BME280;42935;50.966;16.992;2023-03-16T06:37:02;102220.69;;;-1.37;100.00
57050;BME280;42935;50.966;16.992;2023-03-16T06:40:21;102206.53;;;-1.34;100.00
57050;BME280;42935;50.966;16.992;2023-03-16T06:43:45;102209.13;;;-1.29;100.00
57050;BME280;42935;50.966;16.992;2023-03-16T06:47:03;102204.07;;;-1.27;100.00
57050;BME280;42935;50.966;16.992;2023-03-16T06:50:24;102226.66;;;-1.10;100.00
57050;BME280;42935;50.966;16.992;2023-03-16T06:53:44;102217.27;;;-1.01;100.00
57050;BME280;42935;50.966;16.992;2023-03-16T06:57:04;102213.47;;;-0.93;100.00
57050;BME280;42935;50.966;16.992;2023-03-16T07:00:26;102227.73;;;-0.77;100.00
57050;BME280;42935;50.966;16.992;2023-03-16T07:03:49;102231.32;;;-0.63;100.00
57050;BME280;42935;50.966;16.992;2023-03-16T07:07:09;102222.85;;;-0.64;100.00
57050;BME280;42935;50.966;16.992;2023-03-16T07:10:32;102216.41;;;-0.52;100.00
57050;BME280;42935;50.966;16.992;2023-03-16T07:13:57;102223.85;;;-0.37;100.00
57050;BME280;42935;50.966;16.992;2023-03-16T07:17:17;102187.63;;;-0.45;100.00
57050;BME280;42935;50.966;16.992;2023-03-16T07:20:33;102237.40;;;-0.06;100.00
57050;BME280;42935;50.966;16.992;2023-03-16T07:23:50;102235.15;;;0.00;100.00
57050;BME280;42935;50.966;16.992;2023-03-16T07:27:10;102227.13;;;0.04;100.00
57050;BME280;42935;50.966;16.992;2023-03-16T07:30:30;102216.48;;;0.12;100.00
57050;BME280;42935;50.966;16.992;2023-03-16T07:33:50;102245.12;;;0.21;100.00
57050;BME280;42935;50.966;16.992;2023-03-16T07:37:10;102238.01;;;0.27;100.00
57050;BME280;42935;50.966;16.992;2023-03-16T07:40:30;102242.12;;;0.48;100.00
57050;BME280;42935;50.966;16.992;2023-03-16T07:43:53;102247.27;;;0.57;100.00
57050;BME280;42935;50.966;16.992;2023-03-16T07:47:13;102243.34;;;0.55;100.00
57050;BME280;42935;50.966;16.992;2023-03-16T07:50:34;102248.71;;;0.69;100.00
57050;BME280;42935;50.966;16.992;2023-03-16T07:53:51;102257.75;;;0.78;100.00
57050;BME280;42935;50.966;16.992;2023-03-16T07:57:10;102258.41;;;0.94;100.00
57050;BME280;42935;50.966;16.992;2023-03-16T08:00:30;102246.88;;;0.96;100.00
57050;BME280;42935;50.966;16.992;2023-03-16T08:03:54;102261.20;;;0.99;100.00
57050;BME280;42935;50.966;16.992;2023-03-16T08:07:15;102265.40;;;1.07;100.00
57050;BME280;42935;50.966;16.992;2023-03-16T08:10:35;102265.25;;;1.15;100.00
57050;BME280;42935;50.966;16.992;2023-03-16T08:13:55;102252.34;;;1.29;100.00
57050;BME280;42935;50.966;16.992;2023-03-16T08:17:17;102251.38;;;1.37;100.00
57050;BME280;42935;50.966;16.992;2023-03-16T08:20:38;102267.85;;;1.50;100.00
57050;BME280;42935;50.966;16.992;2023-03-16T08:23:59;102259.76;;;1.39;100.00
57050;BME280;42935;50.966;16.992;2023-03-16T08:27:20;102271.51;;;1.59;100.00
57050;BME280;42935;50.966;16.992;2023-03-16T08:30:46;102239.69;;;1.42;100.00
57050;BME280;42935;50.966;16.992;2023-03-16T08:34:08;102284.67;;;1.83;100.00
57050;BME280;42935;50.966;16.992;2023-03-16T08:37:29;102271.73;;;1.84;100.00
57050;BME280;42935;50.966;16.992;2023-03-16T08:40:50;102289.32;;;1.86;100.00
57050;BME280;42935;50.966;16.992;2023-03-16T08:44:10;102289.85;;;1.82;98.95
57050;BME280;42935;50.966;16.992;2023-03-16T08:47:31;102279.13;;;1.95;98.27
57050;BME280;42935;50.966;16.992;2023-03-16T08:50:47;102282.28;;;2.05;94.12
57050;BME280;42935;50.966;16.992;2023-03-16T08:54:08;102283.55;;;2.21;97.78
57050;BME280;42935;50.966;16.992;2023-03-16T08:57:25;102297.98;;;2.44;97.51
57050;BME280;42935;50.966;16.992;2023-03-16T09:00:46;102286.39;;;2.52;94.14
57050;BME280;42935;50.966;16.992;2023-03-16T09:04:06;102297.94;;;2.69;94.00
57050;BME280;42935;50.966;16.992;2023-03-16T09:07:25;102287.77;;;2.64;91.59
57050;BME280;42935;50.966;16.992;2023-03-16T09:10:45;102290.78;;;2.95;93.91
57050;BME280;42935;50.966;16.992;2023-03-16T09:14:04;102292.63;;;2.87;89.13
57050;BME280;42935;50.966;16.992;2023-03-16T09:17:26;102281.34;;;2.58;87.57
57050;BME280;42935;50.966;16.992;2023-03-16T09:20:47;102293.24;;;2.75;85.80
57050;BME280;42935;50.966;16.992;2023-03-16T09:24:08;102293.79;;;3.25;87.44
57050;BME280;42935;50.966;16.992;2023-03-16T09:27:30;102293.32;;;3.19;82.97
57050;BME280;42935;50.966;16.992;2023-03-16T09:30:55;102274.96;;;3.22;81.60
57050;BME280;42935;50.966;16.992;2023-03-16T09:34:15;102289.98;;;3.30;80.57
57050;BME280;42935;50.966;16.992;2023-03-16T09:37:35;102285.95;;;3.39;79.00
57050;BME280;42935;50.966;16.992;2023-03-16T09:40:59;102288.71;;;3.61;78.33
57050;BME280;42935;50.966;16.992;2023-03-16T09:44:51;102277.87;;;3.61;76.68
57050;BME280;42935;50.966;16.992;2023-03-16T09:47:55;102280.34;;;3.72;74.61
57050;BME280;42935;50.966;16.992;2023-03-16T09:58:21;102296.90;;;3.98;69.64
57050;BME280;42935;50.966;16.992;2023-03-16T10:05:15;102290.74;;;4.06;69.02
57050;BME280;42935;50.966;16.992;2023-03-16T10:08:44;102298.50;;;3.92;66.83
57050;BME280;42935;50.966;16.992;2023-03-16T10:12:06;102296.91;;;4.15;68.15
57050;BME280;42935;50.966;16.992;2023-03-16T10:15:32;102287.44;;;4.16;66.02
57050;BME280;42935;50.966;16.992;2023-03-16T10:19:02;102291.63;;;4.27;66.76
57050;BME280;42935;50.966;16.992;2023-03-16T10:22:32;102297.99;;;4.56;69.38
57050;BME280;42935;50.966;16.992;2023-03-16T10:25:54;102292.09;;;4.85;69.44
57050;BME280;42935;50.966;16.992;2023-03-16T10:29:11;102299.23;;;4.32;64.97
57050;BME280;42935;50.966;16.992;2023-03-16T10:32:34;102299.60;;;4.18;66.64
57050;BME280;42935;50.966;16.992;2023-03-16T10:39:36;102286.27;;;4.54;64.96
57050;BME280;42935;50.966;16.992;2023-03-16T10:42:56;102296.57;;;4.27;63.05
57050;BME280;42935;50.966;16.992;2023-03-16T10:46:17;102295.39;;;4.24;62.72
57050;BME280;42935;50.966;16.992;2023-03-16T10:49:42;102280.57;;;4.47;62.61
57050;BME280;42935;50.966;16.992;2023-03-16T10:53:24;102285.21;;;5.11;63.75
57050;BME280;42935;50.966;16.992;2023-03-16T10:56:37;102284.63;;;4.67;61.69
57050;BME280;42935;50.966;16.992;2023-03-16T11:00:13;102284.63;;;4.71;61.44
57050;BME280;42935;50.966;16.992;2023-03-16T11:03:40;102272.90;;;5.00;62.02
57050;BME280;42935;50.966;16.992;2023-03-16T11:07:00;102268.81;;;4.96;60.54
57050;BME280;42935;50.966;16.992;2023-03-16T11:13:49;102279.33;;;5.18;61.28
57050;BME280;42935;50.966;16.992;2023-03-16T11:17:15;102279.34;;;5.53;61.86
57050;BME280;42935;50.966;16.992;2023-03-16T11:20:37;102277.45;;;4.85;59.59
57050;BME280;42935;50.966;16.992;2023-03-16T11:24:08;102266.53;;;4.50;60.84
57050;BME280;42935;50.966;16.992;2023-03-16T11:27:59;102273.12;;;4.78;60.89
57050;BME280;42935;50.966;16.992;2023-03-16T11:31:12;102268.10;;;5.33;59.26
57050;BME280;42935;50.966;16.992;2023-03-16T11:34:35;102237.65;;;5.10;60.43
57050;BME280;42935;50.966;16.992;2023-03-16T11:38:07;102269.66;;;5.43;61.15
57050;BME280;42935;50.966;16.992;2023-03-16T11:41:38;102254.97;;;5.93;59.15
57050;BME280;42935;50.966;16.992;2023-03-16T12:02:38;102253.76;;;5.87;60.44
57050;BME280;42935;50.966;16.992;2023-03-16T12:16:44;102229.48;;;6.23;56.10
57050;BME280;42935;50.966;16.992;2023-03-16T12:20:15;102238.88;;;6.48;57.93
57050;BME280;42935;50.966;16.992;2023-03-16T12:23:47;102239.56;;;6.29;56.32
57050;BME280;42935;50.966;16.992;2023-03-16T12:27:23;102233.98;;;6.31;55.81
57050;BME280;42935;50.966;16.992;2023-03-16T12:30:49;102224.12;;;6.56;56.81
57050;BME280;42935;50.966;16.992;2023-03-16T12:34:23;102212.41;;;6.98;56.01
57050;BME280;42935;50.966;16.992;2023-03-16T12:44:53;102232.04;;;6.88;57.04
57050;BME280;42935;50.966;16.992;2023-03-16T12:58:49;102213.35;;;6.87;53.66
57050;BME280;42935;50.966;16.992;2023-03-16T13:02:18;102216.66;;;6.86;54.15
57050;BME280;42935;50.966;16.992;2023-03-16T13:05:42;102210.38;;;7.49;54.08
57050;BME280;42935;50.966;16.992;2023-03-16T13:09:05;102226.91;;;7.24;53.19
57050;BME280;42935;50.966;16.992;2023-03-16T13:12:30;102216.39;;;7.37;53.24
57050;BME280;42935;50.966;16.992;2023-03-16T13:19:27;102231.62;;;7.21;51.29
57050;BME280;42935;50.966;16.992;2023-03-16T13:26:44;102219.77;;;7.71;50.82
57050;BME280;42935;50.966;16.992;2023-03-16T13:29:52;102218.66;;;7.88;50.51
57050;BME280;42935;50.966;16.992;2023-03-16T13:36:46;102222.64;;;7.46;50.30
57050;BME280;42935;50.966;16.992;2023-03-16T13:43:33;102218.12;;;9.15;50.82
57050;BME280;42935;50.966;16.992;2023-03-16T13:46:52;102218.55;;;9.23;49.70
57050;BME280;42935;50.966;16.992;2023-03-16T13:50:13;102208.21;;;9.67;50.41
57050;BME280;42935;50.966;16.992;2023-03-16T13:53:40;102201.34;;;9.06;49.45
57050;BME280;42935;50.966;16.992;2023-03-16T13:57:03;102216.92;;;8.58;48.02
57050;BME280;42935;50.966;16.992;2023-03-16T14:00:30;102218.21;;;9.20;48.59
57050;BME280;42935;50.966;16.992;2023-03-16T14:03:57;102199.55;;;9.72;47.04
57050;BME280;42935;50.966;16.992;2023-03-16T14:07:20;102199.95;;;10.79;48.78
57050;BME280;42935;50.966;16.992;2023-03-16T14:10:42;102199.29;;;10.94;47.75
57050;BME280;42935;50.966;16.992;2023-03-16T14:14:13;102195.91;;;9.92;47.71
57050;BME280;42935;50.966;16.992;2023-03-16T14:17:30;102201.50;;;9.87;47.78
57050;BME280;42935;50.966;16.992;2023-03-16T14:20:54;102198.52;;;8.76;46.67
57050;BME280;42935;50.966;16.992;2023-03-16T14:27:44;102177.66;;;10.33;45.43
57050;BME280;42935;50.966;16.992;2023-03-16T14:31:11;102183.84;;;8.73;45.14
57050;BME280;42935;50.966;16.992;2023-03-16T14:34:35;102174.80;;;8.14;45.81
57050;BME280;42935;50.966;16.992;2023-03-16T14:41:29;102163.25;;;8.96;46.92
57050;BME280;42935;50.966;16.992;2023-03-16T14:44:59;102175.83;;;10.43;47.98
57050;BME280;42935;50.966;16.992;2023-03-16T14:48:21;102168.01;;;10.34;45.93
57050;BME280;42935;50.966;16.992;2023-03-16T14:51:40;102158.52;;;9.97;45.19
57050;BME280;42935;50.966;16.992;2023-03-16T14:54:59;102169.92;;;9.94;44.08
57050;BME280;42935;50.966;16.992;2023-03-16T14:58:23;102168.98;;;9.48;44.38
57050;BME280;42935;50.966;16.992;2023-03-16T15:01:42;102166.71;;;10.75;46.97
57050;BME280;42935;50.966;16.992;2023-03-16T15:05:05;102151.85;;;11.70;46.16
57050;BME280;42935;50.966;16.992;2023-03-16T15:08:26;102161.95;;;11.84;43.87
57050;BME280;42935;50.966;16.992;2023-03-16T15:11:50;102170.59;;;10.01;44.71
57050;BME280;42935;50.966;16.992;2023-03-16T15:15:17;102167.66;;;10.30;45.20
57050;BME280;42935;50.966;16.992;2023-03-16T15:18:38;102138.76;;;10.83;43.77
57050;BME280;42935;50.966;16.992;2023-03-16T15:22:00;102145.56;;;11.08;43.75
57050;BME280;42935;50.966;16.992;2023-03-16T15:25:24;102138.18;;;11.58;44.51
57050;BME280;42935;50.966;16.992;2023-03-16T15:28:47;102131.08;;;11.78;42.87
57050;BME280;42935;50.966;16.992;2023-03-16T15:32:12;102151.66;;;11.67;43.08
57050;BME280;42935;50.966;16.992;2023-03-16T15:35:34;102142.74;;;11.77;42.32
57050;BME280;42935;50.966;16.992;2023-03-16T15:38:56;102158.06;;;11.90;42.84
57050;BME280;42935;50.966;16.992;2023-03-16T15:42:21;102154.16;;;11.78;43.70
57050;BME280;42935;50.966;16.992;2023-03-16T15:45:39;102144.35;;;11.98;43.59
57050;BME280;42935;50.966;16.992;2023-03-16T15:49:00;102143.69;;;12.18;42.92
57050;BME280;42935;50.966;16.992;2023-03-16T15:52:33;102143.30;;;12.57;42.77
57050;BME280;42935;50.966;16.992;2023-03-16T15:55:52;102147.12;;;12.34;42.60
57050;BME280;42935;50.966;16.992;2023-03-16T15:59:19;102129.05;;;12.38;42.08
57050;BME280;42935;50.966;16.992;2023-03-16T16:02:42;102114.43;;;11.82;42.00
57050;BME280;42935;50.966;16.992;2023-03-16T16:06:07;102128.00;;;11.23;43.80
57050;BME280;42935;50.966;16.992;2023-03-16T16:09:26;102145.13;;;11.58;42.56
57050;BME280;42935;50.966;16.992;2023-03-16T16:12:49;102156.14;;;11.03;42.03
57050;BME280;42935;50.966;16.992;2023-03-16T16:19:34;102158.63;;;8.85;42.70
57050;BME280;42935;50.966;16.992;2023-03-16T16:22:55;102126.61;;;8.26;44.19
57050;BME280;42935;50.966;16.992;2023-03-16T16:29:49;102165.84;;;8.19;45.99
57050;BME280;42935;50.966;16.992;2023-03-16T16:36:42;102177.58;;;8.12;47.64
57050;BME280;42935;50.966;16.992;2023-03-16T16:40:03;102167.66;;;7.74;48.30
57050;BME280;42935;50.966;16.992;2023-03-16T16:46:57;102161.55;;;7.69;48.82
57050;BME280;42935;50.966;16.992;2023-03-16T16:50:21;102171.94;;;7.14;48.90
57050;BME280;42935;50.966;16.992;2023-03-16T16:53:43;102185.16;;;7.17;49.75
57050;BME280;42935;50.966;16.992;2023-03-16T16:57:07;102176.28;;;6.81;50.60
57050;BME280;42935;50.966;16.992;2023-03-16T17:00:28;102187.24;;;6.63;51.13
57050;BME280;42935;50.966;16.992;2023-03-16T17:03:44;102181.55;;;6.17;51.39
57050;BME280;42935;50.966;16.992;2023-03-16T17:07:07;102198.44;;;6.01;52.09
57050;BME280;42935;50.966;16.992;2023-03-16T17:10:28;102178.79;;;5.67;53.04
57050;BME280;42935;50.966;16.992;2023-03-16T17:13:52;102197.73;;;5.50;53.33
57050;BME280;42935;50.966;16.992;2023-03-16T17:17:14;102201.20;;;5.21;53.72
57050;BME280;42935;50.966;16.992;2023-03-16T17:20:36;102200.95;;;4.86;55.81
57050;BME280;42935;50.966;16.992;2023-03-16T17:23:54;102209.19;;;4.65;56.94
57050;BME280;42935;50.966;16.992;2023-03-16T17:27:13;102214.95;;;4.44;57.60
57050;BME280;42935;50.966;16.992;2023-03-16T17:30:37;102203.04;;;4.30;58.20
57050;BME280;42935;50.966;16.992;2023-03-16T17:33:57;102220.47;;;3.85;61.86
57050;BME280;42935;50.966;16.992;2023-03-16T17:37:19;102228.36;;;3.86;61.34
57050;BME280;42935;50.966;16.992;2023-03-16T17:40:40;102222.23;;;3.57;61.81
57050;BME280;42935;50.966;16.992;2023-03-16T17:44:02;102224.48;;;3.01;65.36
57050;BME280;42935;50.966;16.992;2023-03-16T17:47:24;102230.31;;;3.09;65.35
57050;BME280;42935;50.966;16.992;2023-03-16T17:50:47;102226.20;;;3.00;65.93
57050;BME280;42935;50.966;16.992;2023-03-16T17:54:10;102227.02;;;3.03;65.71
57050;BME280;42935;50.966;16.992;2023-03-16T17:57:35;102233.98;;;2.85;65.84
57050;BME280;42935;50.966;16.992;2023-03-16T18:00:55;102222.53;;;2.58;65.80
57050;BME280;42935;50.966;16.992;2023-03-16T18:04:22;102237.89;;;2.55;65.46
57050;BME280;42935;50.966;16.992;2023-03-16T18:07:42;102244.97;;;2.54;65.63
57050;BME280;42935;50.966;16.992;2023-03-16T18:11:05;102233.63;;;2.33;65.63
57050;BME280;42935;50.966;16.992;2023-03-16T18:17:59;102235.48;;;2.09;66.05
57050;BME280;42935;50.966;16.992;2023-03-16T18:21:19;102240.97;;;2.06;66.22
57050;BME280;42935;50.966;16.992;2023-03-16T18:24:40;102243.52;;;2.00;66.60
57050;BME280;42935;50.966;16.992;2023-03-16T18:28:09;102246.58;;;1.81;67.12
57050;BME280;42935;50.966;16.992;2023-03-16T18:31:35;102251.10;;;1.74;67.46
57050;BME280;42935;50.966;16.992;2023-03-16T18:34:56;102251.48;;;1.65;67.96
57050;BME280;42935;50.966;16.992;2023-03-16T18:38:20;102247.75;;;1.56;69.30
57050;BME280;42935;50.966;16.992;2023-03-16T18:41:46;102255.97;;;1.21;71.51
57050;BME280;42935;50.966;16.992;2023-03-16T18:45:11;102235.92;;;1.25;70.94
57050;BME280;42935;50.966;16.992;2023-03-16T18:48:34;102200.08;;;0.98;71.27
57050;BME280;42935;50.966;16.992;2023-03-16T18:51:54;102236.44;;;1.06;71.85
57050;BME280;42935;50.966;16.992;2023-03-16T18:55:17;102245.76;;;0.97;72.55
57050;BME280;42935;50.966;16.992;2023-03-16T18:58:42;102245.71;;;0.87;73.04
57050;BME280;42935;50.966;16.992;2023-03-16T19:05:42;102240.08;;;0.70;74.11
57050;BME280;42935;50.966;16.992;2023-03-16T19:09:13;102249.34;;;0.79;75.19
57050;BME280;42935;50.966;16.992;2023-03-16T19:12:35;102240.74;;;0.56;77.20